Time;durP1;ratioP1;P1;durP2;ratioP2;P2;SDS_P1;SDS_P2;PMS_P1;PMS_P2;Temp;Humidity;BMP_temperature;BMP_pressure;BME280_temperature;BME280_humidity;BME280_pressure;Samples;Min_cycle;Max_cycle;Signal;HPM_P1;HPM_P2
2023/04/23 00:01:26;;;;;;;99.47;54.07;;;9.70;99.90;;;;;;5054590;28;20025;-77
2023/04/23 00:03:55;;;;;;;97.57;53.33;;;9.70;99.90;;;;;;5054332;28;20075;-76
2023/04/23 00:06:22;;;;;;;97.67;54.03;;;9.80;99.90;;;;;;5054295;28;20021;-76
2023/04/23 00:08:49;;;;;;;97.57;54.73;;;9.80;99.90;;;;;;5054535;28;20021;-77
2023/04/23 00:11:15;;;;;;;97.30;52.93;;;9.80;99.90;;;;;;5037471;28;20535;-76
2023/04/23 00:13:41;;;;;;;93.67;53.27;;;9.80;99.90;;;;;;5037469;28;20064;-76
2023/04/23 00:16:09;;;;;;;97.50;53.10;;;9.80;99.90;;;;;;5053790;28;20393;-77
2023/04/23 00:18:35;;;;;;;97.07;53.37;;;9.80;99.90;;;;;;5037622;28;20025;-76
2023/04/23 00:21:01;;;;;;;92.90;50.37;;;9.80;99.90;;;;;;5037454;28;20400;-76
2023/04/23 00:23:27;;;;;;;96.07;51.73;;;9.80;99.90;;;;;;5054002;28;20396;-77
2023/04/23 00:25:53;;;;;;;90.73;50.83;;;9.80;99.90;;;;;;5053940;28;20029;-77
2023/04/23 00:28:18;;;;;;;93.30;50.80;;;9.80;99.90;;;;;;5054153;28;20385;-76
2023/04/23 00:30:44;;;;;;;95.73;52.23;;;9.70;99.90;;;;;;5037213;28;20048;-76
2023/04/23 00:33:10;;;;;;;94.73;52.13;;;9.70;99.90;;;;;;5053860;28;20485;-76
2023/04/23 00:35:36;;;;;;;95.43;52.87;;;9.70;99.90;;;;;;5037183;28;20025;-76
2023/04/23 00:38:01;;;;;;;96.83;52.17;;;9.70;99.90;;;;;;5053731;28;20025;-77
2023/04/23 00:40:27;;;;;;;89.93;51.77;;;9.70;99.90;;;;;;5037023;28;20031;-76
2023/04/23 00:42:54;;;;;;;94.23;52.47;;;9.70;99.90;;;;;;5036958;28;20550;-76
2023/04/23 00:45:20;;;;;;;98.57;52.33;;;9.70;99.90;;;;;;5037268;28;20519;-76
2023/04/23 00:47:46;;;;;;;98.37;55.20;;;9.70;99.90;;;;;;5036806;28;20116;-76
2023/04/23 00:50:12;;;;;;;97.67;52.00;;;9.70;99.90;;;;;;5036929;28;20029;-76
2023/04/23 00:52:39;;;;;;;97.33;50.17;;;9.60;99.90;;;;;;5036842;28;20614;-76
2023/04/23 00:55:07;;;;;;;98.00;52.00;;;9.60;99.90;;;;;;5037007;28;20029;-76
2023/04/23 00:57:33;;;;;;;105.43;51.40;;;9.60;99.90;;;;;;5053296;28;20017;-76
2023/04/23 00:59:59;;;;;;;95.90;52.17;;;9.60;99.90;;;;;;5053395;28;20033;-76
2023/04/23 01:02:27;;;;;;;95.50;51.03;;;9.60;99.90;;;;;;5054129;28;20025;-77
2023/04/23 01:04:54;;;;;;;98.93;52.13;;;9.50;99.90;;;;;;5053152;28;20108;-76
2023/04/23 01:07:20;;;;;;;92.97;48.83;;;9.60;99.90;;;;;;5052993;28;20025;-76
2023/04/23 01:09:49;;;;;;;96.07;50.47;;;9.50;99.90;;;;;;5053104;28;20797;-76
2023/04/23 01:12:16;;;;;;;96.03;50.47;;;9.50;99.90;;;;;;5054465;28;20416;-76
2023/04/23 01:14:42;;;;;;;97.60;50.83;;;9.50;99.90;;;;;;5036100;28;20049;-77
2023/04/23 01:17:10;;;;;;;101.57;50.03;;;9.50;99.90;;;;;;5035794;28;20503;-76
2023/04/23 01:19:36;;;;;;;90.67;49.50;;;9.50;99.90;;;;;;5036117;28;20470;-76
2023/04/23 01:22:02;;;;;;;95.03;50.77;;;9.50;99.90;;;;;;5035919;28;20443;-76
2023/04/23 01:24:30;;;;;;;90.40;48.83;;;9.50;99.90;;;;;;5035779;28;20044;-76
2023/04/23 01:26:57;;;;;;;93.77;49.37;;;9.60;99.90;;;;;;5052456;28;20440;-77
2023/04/23 01:29:24;;;;;;;90.37;49.60;;;9.60;99.90;;;;;;5052548;28;20067;-76
2023/04/23 01:31:50;;;;;;;93.27;48.33;;;9.60;99.90;;;;;;5052641;28;20032;-76
2023/04/23 01:34:16;;;;;;;95.33;49.73;;;9.70;99.90;;;;;;5052526;28;20025;-76
2023/04/23 01:36:43;;;;;;;97.40;48.73;;;9.70;99.90;;;;;;5035923;28;20480;-77
2023/04/23 01:39:09;;;;;;;98.73;51.63;;;9.70;99.90;;;;;;5052485;28;20064;-76
2023/04/23 01:41:35;;;;;;;87.70;48.30;;;9.70;99.90;;;;;;5053625;28;20028;-76
2023/04/23 01:44:01;;;;;;;95.73;50.40;;;9.70;99.90;;;;;;5052410;28;20365;-76
2023/04/23 01:46:27;;;;;;;94.17;48.90;;;9.70;99.90;;;;;;5053472;28;20025;-77
2023/04/23 01:48:53;;;;;;;91.80;47.63;;;9.70;99.90;;;;;;5052187;28;20029;-76
2023/04/23 01:51:19;;;;;;;89.10;47.50;;;9.70;99.90;;;;;;5052039;28;20393;-76
2023/04/23 01:53:44;;;;;;;87.70;47.10;;;9.70;99.90;;;;;;5053405;28;20017;-76
2023/04/23 01:56:11;;;;;;;87.33;47.83;;;9.70;99.90;;;;;;5052020;28;20036;-76
2023/04/23 01:58:37;;;;;;;91.97;46.53;;;9.70;99.90;;;;;;5051412;28;20016;-76
2023/04/23 02:01:02;;;;;;;93.43;48.67;;;9.60;99.90;;;;;;5052183;28;20389;-76
2023/04/23 02:03:29;;;;;;;91.40;47.37;;;9.60;99.90;;;;;;5053259;28;20156;-76
2023/04/23 02:05:55;;;;;;;89.43;46.97;;;9.60;99.90;;;;;;5053301;28;20021;-77
2023/04/23 02:08:21;;;;;;;96.60;48.30;;;9.70;99.90;;;;;;5052086;28;20025;-76
2023/04/23 02:10:47;;;;;;;92.17;47.70;;;9.60;99.90;;;;;;5051707;28;20036;-76
2023/04/23 02:13:13;;;;;;;86.90;45.77;;;9.60;99.90;;;;;;5051600;28;20040;-77
2023/04/23 02:15:39;;;;;;;91.07;47.73;;;9.60;99.90;;;;;;5050898;28;20028;-77
2023/04/23 02:18:05;;;;;;;85.80;45.83;;;9.60;99.90;;;;;;5051654;28;20033;-77
2023/04/23 02:20:31;;;;;;;87.63;46.67;;;9.50;99.90;;;;;;5052944;28;20033;-77
2023/04/23 02:22:57;;;;;;;88.97;46.37;;;9.60;99.90;;;;;;5052858;28;20036;-77
2023/04/23 02:25:22;;;;;;;92.60;48.47;;;9.50;99.90;;;;;;5051782;28;20037;-76
2023/04/23 02:27:48;;;;;;;90.07;47.00;;;9.60;99.90;;;;;;5052941;28;20396;-76
2023/04/23 02:30:14;;;;;;;88.33;48.17;;;9.60;99.90;;;;;;5051429;28;20048;-77
2023/04/23 02:32:41;;;;;;;88.90;47.07;;;9.50;99.90;;;;;;5051698;28;20040;-76
2023/04/23 02:35:08;;;;;;;91.97;49.10;;;9.70;99.90;;;;;;5052877;28;20017;-77
2023/04/23 02:37:36;;;;;;;87.93;47.83;;;9.70;99.90;;;;;;5051983;28;20021;-76
2023/04/23 02:40:04;;;;;;;91.00;47.47;;;9.60;99.90;;;;;;5052914;28;20388;-77
2023/04/23 02:42:30;;;;;;;84.43;46.40;;;9.70;99.90;;;;;;5052886;28;20029;-77
2023/04/23 02:44:55;;;;;;;87.33;46.70;;;9.70;99.90;;;;;;5051764;28;20040;-76
2023/04/23 02:47:21;;;;;;;90.50;46.30;;;9.70;99.90;;;;;;5051848;28;20044;-76
2023/04/23 02:49:47;;;;;;;84.53;44.87;;;9.70;99.90;;;;;;5052595;28;20037;-77
2023/04/23 02:52:12;;;;;;;80.33;44.00;;;9.70;99.90;;;;;;5051566;28;20033;-76
2023/04/23 02:54:38;;;;;;;82.30;44.57;;;9.70;99.90;;;;;;5051364;28;20033;-76
2023/04/23 02:57:04;;;;;;;84.73;47.23;;;9.70;99.90;;;;;;5052457;28;20048;-76
2023/04/23 02:59:30;;;;;;;81.30;45.13;;;9.80;99.90;;;;;;5052606;28;20032;-76
2023/04/23 03:01:56;;;;;;;81.03;43.47;;;9.70;99.90;;;;;;5052578;28;20044;-77
2023/04/23 03:04:22;;;;;;;82.63;46.43;;;9.70;99.90;;;;;;5052704;28;20031;-76
2023/04/23 03:06:48;;;;;;;79.17;44.30;;;9.60;99.90;;;;;;5052706;28;20040;-76
2023/04/23 03:09:14;;;;;;;81.70;44.87;;;9.70;99.90;;;;;;5052492;28;20029;-76
2023/04/23 03:11:39;;;;;;;83.40;45.50;;;9.60;99.90;;;;;;5051271;28;20386;-76
2023/04/23 03:14:05;;;;;;;78.07;43.97;;;9.50;99.90;;;;;;5051460;28;20032;-76
2023/04/23 03:16:31;;;;;;;73.93;43.10;;;9.50;99.90;;;;;;5036068;28;20068;-76
2023/04/23 03:18:57;;;;;;;83.97;45.37;;;9.60;99.90;;;;;;5070278;28;20447;-76
2023/04/23 03:21:23;;;;;;;82.50;44.30;;;9.60;99.90;;;;;;5071188;28;20028;-76
2023/04/23 03:23:49;;;;;;;81.00;44.70;;;9.50;99.90;;;;;;5071706;28;20048;-76
2023/04/23 03:26:14;;;;;;;75.17;41.63;;;9.40;99.90;;;;;;5072899;28;20154;-77
2023/04/23 03:28:40;;;;;;;76.83;43.80;;;9.50;99.90;;;;;;5076911;28;20040;-76
2023/04/23 03:31:06;;;;;;;79.50;44.17;;;9.50;99.90;;;;;;5075053;28;20033;-76
2023/04/23 03:33:31;;;;;;;81.33;44.17;;;9.50;99.90;;;;;;5075719;28;20035;-76
2023/04/23 03:35:57;;;;;;;76.20;41.70;;;9.50;99.90;;;;;;5075270;28;20052;-76
2023/04/23 03:38:22;;;;;;;80.43;44.53;;;9.50;99.90;;;;;;5076376;28;20067;-77
2023/04/23 03:40:48;;;;;;;75.00;42.47;;;9.50;99.90;;;;;;5074965;28;20089;-77
2023/04/23 03:43:14;;;;;;;75.07;42.20;;;9.50;99.90;;;;;;5058938;28;20421;-76
2023/04/23 03:45:39;;;;;;;75.20;40.97;;;9.40;99.90;;;;;;5074953;28;20397;-78
2023/04/23 03:48:05;;;;;;;77.37;42.43;;;9.50;99.90;;;;;;5075166;28;20123;-77
2023/04/23 03:50:33;;;;;;;77.20;41.50;;;9.50;99.90;;;;;;5075172;28;20039;-76
2023/04/23 03:53:00;;;;;;;73.07;41.70;;;9.50;99.90;;;;;;5075118;28;20082;-77
2023/04/23 03:55:25;;;;;;;80.63;41.83;;;9.50;99.90;;;;;;5074757;28;20028;-77
2023/04/23 03:57:51;;;;;;;72.10;41.33;;;9.50;99.90;;;;;;5076087;28;20032;-76
2023/04/23 04:00:17;;;;;;;69.93;39.43;;;9.40;99.90;;;;;;5074681;28;20107;-76
2023/04/23 04:02:42;;;;;;;72.57;40.73;;;9.40;99.90;;;;;;5076107;28;20487;-76
2023/04/23 04:05:09;;;;;;;67.00;39.27;;;9.40;99.90;;;;;;5075116;28;20039;-76
2023/04/23 04:07:36;;;;;;;72.33;40.50;;;9.40;99.90;;;;;;5074427;28;20035;-76
2023/04/23 04:10:02;;;;;;;74.13;40.60;;;9.40;99.90;;;;;;5074286;28;20404;-76
2023/04/23 04:12:28;;;;;;;71.53;39.13;;;9.40;99.90;;;;;;5074335;28;20793;-76
2023/04/23 04:14:54;;;;;;;70.37;40.13;;;9.40;99.90;;;;;;5064040;28;20370;-76
2023/04/23 04:17:19;;;;;;;72.43;41.07;;;9.40;99.90;;;;;;5067953;28;20078;-76
2023/04/23 04:19:45;;;;;;;69.43;39.00;;;9.40;99.90;;;;;;5057435;28;20029;-77
2023/04/23 04:22:11;;;;;;;67.87;39.70;;;9.40;99.90;;;;;;5072805;28;20075;-76
2023/04/23 04:24:36;;;;;;;66.23;38.87;;;9.50;99.90;;;;;;5043329;28;20075;-76
2023/04/23 04:27:03;;;;;;;71.30;40.60;;;9.50;99.90;;;;;;5053608;28;20096;-76
2023/04/23 04:29:30;;;;;;;70.73;39.37;;;9.50;99.90;;;;;;5069332;28;20033;-77
2023/04/23 04:31:55;;;;;;;72.43;39.47;;;9.60;99.90;;;;;;5070771;28;20033;-76
2023/04/23 04:34:22;;;;;;;68.80;38.67;;;9.50;99.90;;;;;;5070323;28;20035;-76
2023/04/23 04:36:47;;;;;;;63.20;36.17;;;9.40;99.90;;;;;;5054849;28;20469;-76
2023/04/23 04:39:13;;;;;;;68.23;39.27;;;9.40;99.90;;;;;;5054205;28;20086;-76
2023/04/23 04:41:40;;;;;;;64.57;37.07;;;9.40;99.90;;;;;;5054834;28;20071;-76
2023/04/23 04:44:09;;;;;;;70.80;39.67;;;9.40;99.90;;;;;;5053710;28;20025;-76
2023/04/23 04:46:39;;;;;;;68.40;40.13;;;9.50;99.90;;;;;;5054948;28;20487;-76
2023/04/23 04:49:09;;;;;;;69.17;39.27;;;9.50;99.90;;;;;;5070182;28;20070;-76
2023/04/23 04:51:36;;;;;;;67.23;38.03;;;9.60;99.90;;;;;;5069947;28;20036;-76
2023/04/23 04:54:02;;;;;;;68.40;38.43;;;9.60;99.90;;;;;;5070067;28;20118;-76
2023/04/23 04:56:27;;;;;;;69.40;37.70;;;9.60;99.90;;;;;;5054541;28;20060;-76
2023/04/23 04:58:53;;;;;;;63.83;36.27;;;9.70;99.90;;;;;;5054794;28;20032;-76
2023/04/23 05:01:20;;;;;;;62.60;36.23;;;9.70;99.90;;;;;;5069880;28;20021;-77
2023/04/23 05:03:46;;;;;;;61.23;37.17;;;9.80;99.90;;;;;;5054392;28;20036;-76
2023/04/23 05:06:12;;;;;;;64.47;35.93;;;9.90;99.90;;;;;;5054517;28;20029;-77
2023/04/23 05:08:37;;;;;;;56.00;34.80;;;9.80;99.90;;;;;;5054480;28;20024;-77
2023/04/23 05:11:03;;;;;;;57.80;34.50;;;9.90;99.90;;;;;;5069647;28;20117;-76
2023/04/23 05:13:29;;;;;;;56.27;34.37;;;9.90;99.90;;;;;;5069605;28;20036;-76
2023/04/23 05:15:55;;;;;;;57.50;35.67;;;9.90;99.90;;;;;;5054130;28;20025;-76
2023/04/23 05:18:20;;;;;;;58.30;35.17;;;10.00;99.90;;;;;;5054291;28;20075;-76
2023/04/23 05:20:46;;;;;;;57.03;33.30;;;10.10;99.90;;;;;;5070748;28;20395;-76
2023/04/23 05:23:12;;;;;;;51.97;33.20;;;10.10;99.90;;;;;;5052980;28;20108;-77
2023/04/23 05:25:38;;;;;;;50.17;31.37;;;10.20;99.90;;;;;;5068159;28;20025;-76
2023/04/23 05:28:03;;;;;;;50.93;31.87;;;10.10;99.90;;;;;;5052701;28;20029;-77
2023/04/23 05:30:29;;;;;;;49.40;30.00;;;10.20;99.90;;;;;;5062929;28;20043;-77
2023/04/23 05:32:55;;;;;;;47.50;29.03;;;10.20;99.90;;;;;;5073748;28;20032;-77
2023/04/23 05:35:21;;;;;;;42.83;27.77;;;10.20;99.90;;;;;;5054430;28;20040;-77
2023/04/23 05:37:46;;;;;;;42.17;26.63;;;10.20;99.90;;;;;;5070901;28;20013;-76
2023/04/23 05:40:12;;;;;;;40.50;25.97;;;10.20;99.90;;;;;;5072315;28;20550;-77
2023/04/23 05:42:38;;;;;;;39.37;25.90;;;10.30;99.90;;;;;;5072361;28;20024;-77
2023/04/23 05:45:04;;;;;;;36.43;24.70;;;10.30;99.90;;;;;;5071698;28;20119;-76
2023/04/23 05:47:30;;;;;;;35.50;25.43;;;10.40;99.90;;;;;;5073457;28;20111;-77
2023/04/23 05:49:58;;;;;;;30.67;22.13;;;10.40;99.90;;;;;;5072375;28;20174;-77
2023/04/23 05:52:24;;;;;;;31.23;22.63;;;10.50;99.90;;;;;;5055958;28;20032;-76
2023/04/23 05:54:50;;;;;;;32.73;23.10;;;10.50;99.90;;;;;;5072191;28;20107;-76
2023/04/23 05:57:16;;;;;;;32.37;22.13;;;10.50;99.90;;;;;;5055454;28;20488;-77
2023/04/23 05:59:42;;;;;;;33.92;23.27;;;10.60;99.90;;;;;;5072111;28;20042;-77
2023/04/23 06:02:09;;;;;;;30.17;22.45;;;10.60;99.90;;;;;;5072083;28;20120;-76
2023/04/23 06:04:36;;;;;;;28.90;22.13;;;10.60;99.90;;;;;;5072053;28;20028;-77
2023/04/23 06:07:02;;;;;;;30.05;22.40;;;10.60;99.90;;;;;;5072096;28;20028;-76
2023/04/23 06:09:28;;;;;;;32.23;22.33;;;10.60;99.90;;;;;;5071989;28;20052;-77
2023/04/23 06:11:54;;;;;;;31.17;23.35;;;10.60;99.90;;;;;;5072200;28;20532;-78
2023/04/23 06:14:19;;;;;;;32.53;22.33;;;10.60;99.90;;;;;;5072180;28;20025;-76
2023/04/23 06:16:45;;;;;;;31.50;22.37;;;10.60;99.90;;;;;;5055190;28;20443;-77
2023/04/23 06:19:11;;;;;;;32.37;24.03;;;10.60;99.90;;;;;;5071874;28;20024;-76
2023/04/23 06:21:36;;;;;;;30.43;22.50;;;10.70;99.90;;;;;;5071907;28;20029;-77
2023/04/23 06:24:02;;;;;;;28.20;21.60;;;10.70;99.90;;;;;;5055380;28;20025;-77
2023/04/23 06:26:28;;;;;;;30.40;21.33;;;10.80;99.90;;;;;;5055189;28;20036;-77
2023/04/23 06:28:53;;;;;;;28.63;21.27;;;10.80;99.90;;;;;;5072222;28;20029;-77
2023/04/23 06:31:19;;;;;;;29.87;22.00;;;10.80;99.90;;;;;;5054944;28;20062;-77
2023/04/23 06:33:45;;;;;;;30.13;22.77;;;10.90;99.90;;;;;;5071761;28;20488;-77
2023/04/23 06:36:11;;;;;;;27.38;20.90;;;10.90;99.90;;;;;;5055016;28;20025;-76
2023/04/23 06:38:37;;;;;;;29.07;21.97;;;10.90;99.90;;;;;;5073025;28;20067;-77
2023/04/23 06:41:03;;;;;;;27.47;19.53;;;10.90;99.90;;;;;;5071869;28;20036;-77
2023/04/23 06:43:29;;;;;;;26.63;20.23;;;11.00;99.90;;;;;;5073040;28;20036;-77
2023/04/23 06:45:55;;;;;;;31.02;20.88;;;11.00;99.90;;;;;;5054930;28;20049;-77
2023/04/23 06:48:21;;;;;;;26.50;20.38;;;11.10;99.90;;;;;;5071718;28;20028;-77
2023/04/23 06:50:47;;;;;;;24.98;19.13;;;11.10;99.90;;;;;;5071659;28;20033;-78
2023/04/23 06:53:13;;;;;;;25.23;19.98;;;11.10;99.90;;;;;;5054811;28;20124;-76
2023/04/23 06:55:39;;;;;;;26.25;20.02;;;11.20;99.90;;;;;;5072795;28;20435;-77
2023/04/23 06:58:06;;;;;;;26.70;20.70;;;11.20;99.90;;;;;;5054699;28;20024;-79
2023/04/23 07:00:32;;;;;;;24.60;19.50;;;11.20;99.90;;;;;;5055115;28;20094;-77
2023/04/23 07:02:58;;;;;;;24.63;18.80;;;11.30;99.90;;;;;;5075689;28;20068;-77
2023/04/23 07:05:23;;;;;;;23.55;18.80;;;11.30;99.90;;;;;;5077036;28;20059;-76
2023/04/23 07:07:49;;;;;;;24.33;18.40;;;11.40;99.90;;;;;;5058753;28;20512;-76
2023/04/23 07:10:14;;;;;;;24.05;17.83;;;11.40;99.90;;;;;;5075492;28;20032;-76
2023/04/23 07:12:40;;;;;;;28.75;19.40;;;11.50;99.90;;;;;;5058685;28;20025;-76
2023/04/23 07:15:07;;;;;;;24.63;17.90;;;11.50;99.90;;;;;;5076469;28;20051;-77
2023/04/23 07:17:34;;;;;;;21.90;17.23;;;11.60;99.90;;;;;;5076211;28;20252;-77
2023/04/23 07:20:04;;;;;;;23.25;17.67;;;11.60;99.90;;;;;;5076275;28;20086;-78
2023/04/23 07:22:30;;;;;;;24.55;18.38;;;11.70;99.90;;;;;;5059136;28;20086;-77
2023/04/23 07:24:55;;;;;;;20.50;15.98;;;11.70;99.90;;;;;;5058413;28;20024;-77
2023/04/23 07:27:21;;;;;;;20.13;14.85;;;11.80;99.90;;;;;;5075247;28;20480;-77
2023/04/23 07:29:47;;;;;;;20.77;16.15;;;11.80;99.90;;;;;;5074645;28;20059;-77
2023/04/23 07:32:12;;;;;;;20.05;15.63;;;11.90;99.90;;;;;;5058541;28;20035;-76
2023/04/23 07:34:38;;;;;;;20.15;15.38;;;12.00;99.90;;;;;;5076311;28;20032;-77
2023/04/23 07:37:04;;;;;;;22.40;15.80;;;12.00;99.90;;;;;;5075979;28;20033;-76
2023/04/23 07:39:29;;;;;;;24.63;15.15;;;12.10;99.90;;;;;;5075078;28;20082;-78
2023/04/23 07:41:55;;;;;;;19.90;14.43;;;12.10;99.90;;;;;;5074717;28;20102;-76
2023/04/23 07:44:21;;;;;;;20.80;14.98;;;12.20;99.90;;;;;;5075821;28;20035;-76
2023/04/23 07:46:53;;;;;;;19.20;13.43;;;12.20;99.90;;;;;;5052673;28;20025;-76
2023/04/23 07:49:19;;;;;;;19.08;12.88;;;12.30;99.90;;;;;;5056022;28;20496;-76
2023/04/23 07:51:44;;;;;;;18.90;12.05;;;12.30;99.90;;;;;;5054324;28;20044;-76
2023/04/23 07:54:10;;;;;;;17.63;12.35;;;12.40;99.90;;;;;;5056297;28;20036;-78
2023/04/23 07:56:36;;;;;;;15.88;11.05;;;12.50;99.90;;;;;;5071170;28;20116;-77
2023/04/23 07:59:03;;;;;;;17.15;11.07;;;12.50;99.90;;;;;;5056131;28;20112;-78
2023/04/23 08:01:29;;;;;;;15.30;11.07;;;12.60;99.90;;;;;;5055943;28;20029;-77
2023/04/23 08:03:55;;;;;;;15.88;11.60;;;12.60;99.90;;;;;;5054618;28;20048;-77
2023/04/23 08:06:22;;;;;;;15.25;10.40;;;12.70;99.90;;;;;;5056317;28;20029;-77
2023/04/23 08:08:48;;;;;;;17.42;11.27;;;12.80;99.90;;;;;;5060814;28;20342;-80
2023/04/23 08:11:14;;;;;;;14.93;9.98;;;12.80;99.90;;;;;;5054942;28;20033;-77
2023/04/23 08:13:40;;;;;;;16.95;10.13;;;12.90;99.90;;;;;;5054154;28;20116;-76
2023/04/23 08:16:05;;;;;;;13.68;9.07;;;13.00;99.90;;;;;;5055070;28;20040;-77
2023/04/23 08:18:31;;;;;;;15.50;10.45;;;13.00;99.90;;;;;;5070894;28;20389;-77
2023/04/23 08:20:57;;;;;;;12.85;8.80;;;13.10;99.90;;;;;;5055459;28;20477;-78
2023/04/23 08:23:23;;;;;;;11.88;8.45;;;13.10;99.90;;;;;;5070841;28;20464;-80
2023/04/23 08:25:49;;;;;;;12.25;8.00;;;13.20;99.90;;;;;;5070632;28;20053;-81
2023/04/23 08:28:15;;;;;;;13.43;8.73;;;13.30;99.90;;;;;;5070873;28;20071;-79
2023/04/23 08:30:40;;;;;;;13.57;8.25;;;13.30;99.90;;;;;;5070314;28;20040;-80
2023/04/23 08:33:06;;;;;;;15.80;8.70;;;13.40;99.90;;;;;;5070353;28;20028;-77
2023/04/23 08:35:32;;;;;;;12.40;9.30;;;13.50;99.90;;;;;;5055077;28;20031;-81
2023/04/23 08:37:58;;;;;;;14.52;8.68;;;13.50;99.90;;;;;;5057260;28;20025;-76
2023/04/23 08:40:25;;;;;;;13.95;8.40;;;13.60;99.90;;;;;;5073681;28;20036;-78
2023/04/23 08:43:00;;;;;;;13.73;7.50;;;13.60;99.90;;;;;;5073897;28;20035;-80
2023/04/23 08:45:27;;;;;;;12.27;7.90;;;13.70;99.90;;;;;;5075045;28;20044;-78
2023/04/23 08:47:58;;;;;;;14.00;8.90;;;13.80;99.90;;;;;;5073688;28;20021;-77
2023/04/23 08:50:24;;;;;;;14.27;7.95;;;13.80;99.90;;;;;;5073576;28;20024;-77
2023/04/23 08:52:52;;;;;;;13.75;7.65;;;13.90;99.90;;;;;;5073782;28;20151;-77
2023/04/23 08:55:20;;;;;;;12.57;6.95;;;14.00;99.90;;;;;;5073505;28;20020;-79
2023/04/23 08:57:47;;;;;;;11.15;6.60;;;14.00;99.90;;;;;;5056898;28;20031;-79
2023/04/23 09:00:14;;;;;;;12.27;6.22;;;14.10;99.90;;;;;;5074675;28;20470;-78
2023/04/23 09:02:41;;;;;;;12.20;5.80;;;14.20;99.90;;;;;;5073719;28;20400;-77
2023/04/23 09:05:07;;;;;;;7.78;4.75;;;14.30;99.90;;;;;;5056849;28;20052;-76
2023/04/23 09:07:34;;;;;;;10.18;5.00;;;14.40;99.90;;;;;;5073520;28;20114;-80
2023/04/23 09:10:11;;;;;;;9.27;4.60;;;14.50;99.90;;;;;;5073676;28;20028;-79
2023/04/23 09:12:39;;;;;;;9.55;4.88;;;14.60;99.90;;;;;;5074488;28;20026;-79
2023/04/23 09:15:09;;;;;;;13.50;5.93;;;14.70;99.90;;;;;;5073640;28;20020;-77
2023/04/23 09:17:39;;;;;;;8.77;4.18;;;14.80;99.90;;;;;;5072841;28;20074;-78
2023/04/23 09:20:08;;;;;;;10.48;4.18;;;14.90;99.90;;;;;;5056259;28;20024;-76
2023/04/23 09:22:37;;;;;;;12.35;3.63;;;15.00;99.90;;;;;;5072979;28;20032;-77
2023/04/23 09:25:04;;;;;;;8.48;3.60;;;15.10;99.70;;;;;;5073114;28;20210;-76
2023/04/23 09:27:30;;;;;;;9.48;4.10;;;15.20;99.20;;;;;;5074134;28;20376;-77
2023/04/23 09:29:58;;;;;;;7.55;3.28;;;15.30;98.70;;;;;;5074221;28;20028;-77
2023/04/23 09:32:34;;;;;;;6.85;2.92;;;15.40;98.60;;;;;;5056886;28;20067;-78
2023/04/23 09:35:03;;;;;;;7.97;2.78;;;15.50;97.40;;;;;;5072938;28;20107;-80
2023/04/23 09:37:29;;;;;;;10.05;2.60;;;15.60;97.40;;;;;;5073927;28;20451;-81
2023/04/23 09:40:03;;;;;;;9.13;2.50;;;15.70;96.00;;;;;;5074056;28;20047;-79
2023/04/23 09:42:29;;;;;;;7.03;2.78;;;15.80;96.00;;;;;;5072732;28;20059;-77
2023/04/23 09:45:06;;;;;;;10.35;2.45;;;16.00;95.20;;;;;;5072776;28;20031;-77
2023/04/23 09:47:38;;;;;;;9.13;2.80;;;16.10;94.70;;;;;;5073088;28;20111;-80
2023/04/23 09:50:04;;;;;;;8.63;2.10;;;16.20;94.70;;;;;;5072425;28;20048;-77
2023/04/23 09:52:32;;;;;;;6.93;1.98;;;16.30;94.50;;;;;;5072477;28;20047;-78
2023/04/23 09:55:01;;;;;;;7.68;1.98;;;16.50;94.50;;;;;;5072537;28;20479;-77
2023/04/23 09:57:27;;;;;;;7.63;1.70;;;16.60;92.70;;;;;;5073479;28;20469;-79
2023/04/23 09:59:55;;;;;;;6.40;1.90;;;16.70;91.80;;;;;;5072424;28;20020;-78
2023/04/23 10:02:26;;;;;;;4.55;1.00;;;16.80;91.50;;;;;;5072590;28;20021;-77
2023/04/23 10:04:52;;;;;;;9.75;1.60;;;16.90;90.40;;;;;;5073935;28;20077;-78
2023/04/23 10:07:18;;;;;;;6.32;1.60;;;16.90;89.20;;;;;;5072321;28;20495;-79
2023/04/23 10:09:44;;;;;;;8.43;1.58;;;17.00;87.70;;;;;;5073500;28;20472;-78
2023/04/23 10:12:16;;;;;;;8.57;1.77;;;17.10;87.60;;;;;;5055524;28;20036;-76
2023/04/23 10:14:42;;;;;;;5.85;1.10;;;17.20;86.60;;;;;;5072168;28;20465;-78
2023/04/23 10:17:09;;;;;;;7.50;1.63;;;17.40;86.20;;;;;;5055568;28;20044;-80
2023/04/23 10:19:39;;;;;;;10.95;1.92;;;17.60;84.20;;;;;;5073411;28;20469;-80
2023/04/23 10:22:08;;;;;;;9.68;1.20;;;17.90;80.70;;;;;;5072178;28;20469;-75
2023/04/23 10:24:40;;;;;;;7.28;1.13;;;18.10;79.80;;;;;;5073395;28;20021;-81
2023/04/23 10:27:11;;;;;;;10.55;0.93;;;18.40;79.20;;;;;;5073561;28;20362;-76
2023/04/23 10:29:38;;;;;;;6.30;1.10;;;18.70;77.80;;;;;;5055914;28;20105;-80
2023/04/23 10:32:05;;;;;;;6.68;1.10;;;19.00;75.90;;;;;;5071990;28;20032;-77
2023/04/23 10:34:32;;;;;;;5.38;1.00;;;19.40;75.90;;;;;;5073693;28;20020;-78
2023/04/23 10:36:59;;;;;;;4.65;0.90;;;19.60;74.10;;;;;;5071180;28;20028;-78
2023/04/23 10:39:32;;;;;;;6.03;0.85;;;19.70;72.80;;;;;;5072149;28;20021;-77
2023/04/23 10:41:59;;;;;;;7.13;1.23;;;19.80;70.90;;;;;;5071993;28;20024;-77
2023/04/23 10:44:38;;;;;;;7.03;1.35;;;19.90;70.10;;;;;;5071959;28;20060;-75
2023/04/23 10:47:05;;;;;;;6.93;1.25;;;20.10;69.50;;;;;;5073229;28;20016;-78
2023/04/23 10:49:33;;;;;;;3.85;0.80;;;20.20;68.00;;;;;;5071905;28;20028;-77
2023/04/23 10:52:14;;;;;;;4.22;0.82;;;20.10;65.20;;;;;;5071719;28;20055;-80
2023/04/23 10:54:56;;;;;;;5.97;1.02;;;20.00;63.50;;;;;;5073166;28;20017;-75
2023/04/23 10:57:21;;;;;;;3.95;0.90;;;19.80;63.00;;;;;;5071781;28;20108;-81
2023/04/23 10:59:52;;;;;;;4.72;0.77;;;19.90;65.20;;;;;;5073504;28;20052;-76
2023/04/23 11:02:19;;;;;;;3.65;1.00;;;20.10;63.90;;;;;;5055041;28;20032;-77
2023/04/23 11:04:47;;;;;;;7.68;1.17;;;20.30;64.20;;;;;;5071854;28;20107;-76
2023/04/23 11:07:13;;;;;;;6.35;0.85;;;20.60;64.50;;;;;;5070377;28;20489;-80
2023/04/23 11:09:46;;;;;;;4.65;0.88;;;20.90;63.70;;;;;;5071384;28;20078;-77
2023/04/23 11:12:19;;;;;;;6.60;0.82;;;21.40;61.50;;;;;;5071129;28;20441;-80
2023/04/23 11:14:49;;;;;;;4.40;0.77;;;21.60;60.90;;;;;;5072770;28;20464;-77
2023/04/23 11:17:31;;;;;;;2.83;0.70;;;21.70;60.40;;;;;;5054429;28;20047;-76
2023/04/23 11:20:05;;;;;;;4.57;0.70;;;21.80;60.00;;;;;;5071338;28;20025;-79
2023/04/23 11:22:36;;;;;;;6.22;1.15;;;22.00;59.10;;;;;;5071411;28;20082;-74
2023/04/23 11:25:03;;;;;;;5.55;0.80;;;22.00;58.70;;;;;;5071403;28;20357;-79
2023/04/23 11:27:30;;;;;;;6.57;0.90;;;21.90;58.40;;;;;;5072609;28;20027;-78
2023/04/23 11:29:56;;;;;;;5.40;0.82;;;21.70;58.20;;;;;;5072376;28;20032;-80
2023/04/23 11:32:22;;;;;;;5.53;1.05;;;21.60;58.10;;;;;;5071165;28;20017;-80
2023/04/23 11:34:49;;;;;;;6.88;0.70;;;21.50;57.00;;;;;;5054610;28;20439;-79
2023/04/23 11:37:16;;;;;;;5.82;1.00;;;21.40;57.40;;;;;;5054588;28;20078;-76
2023/04/23 11:39:43;;;;;;;2.53;0.60;;;21.20;57.10;;;;;;5071028;28;20064;-80
2023/04/23 11:42:13;;;;;;;5.72;0.70;;;21.30;58.00;;;;;;5072415;28;20111;-76
2023/04/23 11:44:45;;;;;;;4.43;0.80;;;21.30;57.70;;;;;;5072438;28;20031;-75
2023/04/23 11:47:15;;;;;;;4.38;0.70;;;21.40;57.30;;;;;;5073607;28;20036;-75
2023/04/23 11:49:42;;;;;;;6.30;0.80;;;21.30;57.00;;;;;;5076057;28;20029;-75
2023/04/23 11:52:09;;;;;;;5.40;0.75;;;21.30;57.40;;;;;;5075737;28;20023;-75
2023/04/23 11:54:35;;;;;;;4.00;0.75;;;21.30;57.60;;;;;;5074917;28;20017;-75
2023/04/23 11:57:03;;;;;;;5.47;1.13;;;21.40;57.50;;;;;;5074627;28;20028;-76
2023/04/23 11:59:29;;;;;;;3.47;0.63;;;21.60;57.80;;;;;;5075976;28;20013;-75
2023/04/23 12:01:57;;;;;;;3.92;0.90;;;21.70;58.10;;;;;;5075598;28;20362;-75
2023/04/23 12:04:25;;;;;;;4.43;0.80;;;21.80;57.70;;;;;;5074316;28;20384;-76
2023/04/23 12:06:52;;;;;;;4.75;0.70;;;21.80;58.00;;;;;;5073953;28;20031;-75
2023/04/23 12:09:20;;;;;;;6.40;0.90;;;21.80;57.40;;;;;;5075648;28;20038;-74
2023/04/23 12:11:46;;;;;;;3.55;0.73;;;21.70;56.80;;;;;;5074235;28;20016;-75
2023/04/23 12:14:13;;;;;;;5.05;0.70;;;21.70;57.10;;;;;;5057473;28;20493;-76
2023/04/23 12:16:41;;;;;;;5.00;0.70;;;21.50;56.40;;;;;;5073906;28;20029;-77
2023/04/23 12:19:27;;;;;;;3.75;0.70;;;21.40;56.90;;;;;;5075345;28;20074;-75
2023/04/23 12:21:53;;;;;;;4.95;0.98;;;21.20;57.00;;;;;;5074129;28;20039;-75
2023/04/23 12:24:28;;;;;;;3.97;0.77;;;21.10;57.10;;;;;;5075174;28;20031;-75
2023/04/23 12:26:57;;;;;;;6.30;0.90;;;21.10;57.50;;;;;;5073920;28;20059;-75
2023/04/23 12:29:23;;;;;;;6.20;0.98;;;21.00;57.60;;;;;;5073974;28;20032;-76
2023/04/23 12:31:51;;;;;;;3.50;0.68;;;20.90;57.60;;;;;;5074985;28;20056;-75
2023/04/23 12:34:17;;;;;;;4.50;0.90;;;20.80;57.80;;;;;;5075002;28;20044;-75
2023/04/23 12:36:55;;;;;;;5.03;0.88;;;20.80;58.40;;;;;;5073597;28;20062;-77